Time;durP1;ratioP1;P1;durP2;ratioP2;P2;SDS_P1;SDS_P2;PMS_P1;PMS_P2;Temp;Humidity;BMP_temperature;BMP_pressure;BME280_temperature;BME280_humidity;BME280_pressure;Samples;Min_cycle;Max_cycle;Signal;HPM_P1;HPM_P2
2022/08/21 00:01:03;;;;;;;2.80;2.40;;;;;;;17.01;98.48;100364.88;4889982;29;20671;-71
2022/08/21 00:03:28;;;;;;;2.30;2.03;;;;;;;16.97;98.97;100363.25;4891749;29;20244;-71
2022/08/21 00:05:54;;;;;;;2.37;2.17;;;;;;;16.92;99.60;100368.63;4898367;29;20228;-73
2022/08/21 00:08:20;;;;;;;2.87;2.00;;;;;;;16.88;100.00;100367.88;4888968;29;20269;-74
2022/08/21 00:10:46;;;;;;;2.40;2.20;;;;;;;16.82;99.99;100364.63;4890085;29;20201;-73
2022/08/21 00:13:13;;;;;;;1.97;1.80;;;;;;;16.74;100.00;100368.31;4888800;29;20295;-72
2022/08/21 00:15:39;;;;;;;3.20;2.07;;;;;;;16.69;100.00;100364.16;4892039;29;20201;-73
2022/08/21 00:18:07;;;;;;;3.53;1.97;;;;;;;16.65;100.00;100366.03;4892840;29;20197;-71
2022/08/21 00:20:32;;;;;;;2.77;2.50;;;;;;;16.61;100.00;100361.81;4908040;29;20276;-74
2022/08/21 00:22:58;;;;;;;3.57;2.20;;;;;;;16.60;100.00;100362.72;4897634;29;21217;-72
2022/08/21 00:25:23;;;;;;;3.90;2.53;;;;;;;16.59;100.00;100358.38;4890358;29;20484;-72
2022/08/21 00:27:49;;;;;;;2.83;2.30;;;;;;;16.56;100.00;100353.28;4891446;29;20200;-71
2022/08/21 00:30:17;;;;;;;2.80;2.47;;;;;;;16.54;100.00;100357.69;4890681;29;20717;-72
2022/08/21 00:32:42;;;;;;;3.10;2.10;;;;;;;16.51;100.00;100355.19;4891904;29;20733;-73
2022/08/21 00:35:11;;;;;;;3.00;2.20;;;;;;;16.47;100.00;100354.44;4896081;29;20226;-71
2022/08/21 00:37:38;;;;;;;2.20;2.00;;;;;;;16.47;100.00;100346.59;4909161;29;20686;-72
2022/08/21 00:40:05;;;;;;;3.00;2.00;;;;;;;16.47;100.00;100346.59;4895996;29;20197;-71
2022/08/21 00:42:31;;;;;;;2.17;1.90;;;;;;;16.48;100.00;100350.06;4892645;29;20278;-72
2022/08/21 00:44:57;;;;;;;4.70;2.30;;;;;;;16.45;100.00;100346.63;4907034;29;20362;-71
2022/08/21 00:47:23;;;;;;;2.63;2.23;;;;;;;16.43;100.00;100353.66;4896362;29;20203;-75
2022/08/21 00:49:49;;;;;;;2.50;2.10;;;;;;;16.40;100.00;100350.31;4909284;29;20191;-73
2022/08/21 00:52:20;;;;;;;2.20;2.00;;;;;;;16.34;100.00;100345.25;4891375;29;20249;-76
2022/08/21 00:54:48;;;;;;;2.70;2.27;;;;;;;16.25;100.00;100349.88;4893060;29;20189;-73
2022/08/21 00:57:20;;;;;;;2.40;2.13;;;;;;;16.19;100.00;100354.44;4893713;29;20612;-73
2022/08/21 00:59:49;;;;;;;2.57;2.23;;;;;;;16.11;100.00;100345.09;4895570;29;20193;-72
2022/08/21 01:02:16;;;;;;;1.97;1.80;;;;;;;16.06;100.00;100343.53;4893727;29;20209;-75
2022/08/21 01:04:41;;;;;;;3.03;1.90;;;;;;;16.00;100.00;100347.19;4896552;29;20205;-73
2022/08/21 01:07:08;;;;;;;2.27;2.07;;;;;;;15.97;100.00;100347.25;4905751;29;20874;-72
2022/08/21 01:09:33;;;;;;;3.13;2.50;;;;;;;15.92;100.00;100349.19;4890375;29;20205;-72
2022/08/21 01:11:59;;;;;;;2.77;2.20;;;;;;;15.88;100.00;100348.44;4896159;29;20258;-72
2022/08/21 01:14:24;;;;;;;2.83;2.50;;;;;;;15.83;100.00;100358.94;4892451;29;20208;-76
2022/08/21 01:16:52;;;;;;;3.10;2.37;;;;;;;15.79;100.00;100354.75;4892393;29;20304;-72
2022/08/21 01:19:21;;;;;;;3.00;2.30;;;;;;;15.76;100.00;100344.38;4914513;29;20193;-71
2022/08/21 01:21:46;;;;;;;2.40;2.20;;;;;;;15.73;100.00;100347.09;4910012;29;20719;-72
2022/08/21 01:24:12;;;;;;;2.70;2.50;;;;;;;15.73;100.00;100346.25;4894224;29;20208;-72
2022/08/21 01:26:38;;;;;;;2.27;2.07;;;;;;;15.71;100.00;100338.44;4895150;29;20606;-72
2022/08/21 01:29:10;;;;;;;2.27;2.07;;;;;;;15.70;100.00;100342.81;4892984;29;20203;-72
2022/08/21 01:31:36;;;;;;;2.80;2.50;;;;;;;15.70;100.00;100340.22;4893798;29;20559;-74
2022/08/21 01:34:03;;;;;;;2.67;2.37;;;;;;;15.70;100.00;100348.03;4892303;29;20203;-71
2022/08/21 01:36:28;;;;;;;2.40;2.20;;;;;;;15.68;100.00;100334.19;4892713;29;20696;-75
2022/08/21 01:38:54;;;;;;;3.13;2.20;;;;;;;15.69;100.00;100337.63;4914909;29;20276;-73
2022/08/21 01:41:20;;;;;;;2.67;2.43;;;;;;;15.69;100.00;100335.88;4891350;29;20228;-72
2022/08/21 01:43:45;;;;;;;3.03;2.37;;;;;;;15.68;100.00;100335.91;4890957;29;20284;-72
2022/08/21 01:46:12;;;;;;;2.77;2.30;;;;;;;15.66;100.00;100332.50;4907140;29;20222;-71
2022/08/21 01:48:38;;;;;;;3.07;2.27;;;;;;;15.66;100.00;100346.41;4894975;29;20367;-71
2022/08/21 01:51:05;;;;;;;2.83;2.30;;;;;;;15.66;100.00;100343.81;4911405;28;20672;-71
2022/08/21 01:53:33;;;;;;;2.47;2.27;;;;;;;15.65;100.00;100339.47;4907434;29;21227;-73
2022/08/21 01:55:59;;;;;;;2.50;2.30;;;;;;;15.65;100.00;100344.69;4892928;29;20259;-72
2022/08/21 01:58:24;;;;;;;2.23;2.07;;;;;;;15.65;100.00;100341.25;4905406;29;20232;-73
2022/08/21 02:00:49;;;;;;;2.90;2.30;;;;;;;15.63;100.00;100336.06;4894243;29;20199;-73
2022/08/21 02:03:15;;;;;;;2.60;2.40;;;;;;;15.59;100.00;100339.66;4892580;29;20287;-72
2022/08/21 02:05:40;;;;;;;2.60;2.40;;;;;;;15.54;100.00;100331.97;4895559;29;20299;-71
2022/08/21 02:08:06;;;;;;;2.70;2.37;;;;;;;15.48;100.00;100334.75;4894656;29;20223;-72
2022/08/21 02:10:32;;;;;;;4.33;2.30;;;;;;;15.44;100.00;100327.91;4895520;29;20728;-74
2022/08/21 02:13:00;;;;;;;2.77;2.43;;;;;;;15.41;100.00;100334.97;4908825;29;20198;-72
2022/08/21 02:15:26;;;;;;;2.60;2.40;;;;;;;15.35;100.00;100329.03;4891721;29;20220;-72
2022/08/21 02:17:56;;;;;;;3.43;2.60;;;;;;;15.33;100.00;100336.03;4893109;29;20200;-72
2022/08/21 02:20:28;;;;;;;2.60;2.40;;;;;;;15.31;100.00;100322.19;4893118;29;20195;-73
2022/08/21 02:22:54;;;;;;;2.60;2.40;;;;;;;15.30;100.00;100327.44;4893158;29;20288;-72
2022/08/21 02:25:21;;;;;;;3.20;2.87;;;;;;;15.24;100.00;100321.50;4890507;29;20234;-72
2022/08/21 02:27:47;;;;;;;2.70;2.20;;;;;;;15.18;100.00;100321.69;4906695;29;20200;-72
2022/08/21 02:30:16;;;;;;;3.47;2.47;;;;;;;15.13;100.00;100320.94;4891198;29;20205;-75
2022/08/21 02:32:42;;;;;;;2.30;2.10;;;;;;;15.07;100.00;100319.38;4891477;29;20685;-72
2022/08/21 02:35:09;;;;;;;2.67;2.37;;;;;;;15.04;100.00;100316.00;4895201;29;20341;-73
2022/08/21 02:37:44;;;;;;;3.17;2.80;;;;;;;15.02;100.00;100310.81;4890755;29;20203;-72
2022/08/21 02:40:11;;;;;;;2.53;2.33;;;;;;;15.01;100.00;100305.66;4891694;29;20202;-72
2022/08/21 02:42:36;;;;;;;2.57;2.37;;;;;;;14.97;100.00;100317.91;4891740;29;20200;-73
2022/08/21 02:45:03;;;;;;;3.20;2.33;;;;;;;14.95;100.00;100317.09;4890977;29;20206;-72
2022/08/21 02:47:28;;;;;;;2.63;2.43;;;;;;;14.92;100.00;100315.41;4891877;29;20657;-72
2022/08/21 02:49:54;;;;;;;2.97;2.53;;;;;;;14.90;100.00;100316.34;4906509;29;20199;-71
2022/08/21 02:52:19;;;;;;;2.50;2.30;;;;;;;14.86;100.00;100310.38;4910188;29;20203;-76
2022/08/21 02:54:44;;;;;;;2.43;2.23;;;;;;;14.84;100.00;100314.78;4908638;29;20188;-72
2022/08/21 02:57:10;;;;;;;2.67;2.47;;;;;;;14.81;100.00;100316.63;4888740;29;20226;-71
2022/08/21 02:59:35;;;;;;;2.80;2.50;;;;;;;14.77;100.00;100316.69;4888813;29;20199;-72
2022/08/21 03:02:00;;;;;;;3.00;2.40;;;;;;;14.71;100.00;100316.00;4908834;29;20192;-72
2022/08/21 03:04:26;;;;;;;2.63;2.23;;;;;;;14.66;100.00;100317.81;4903284;29;20198;-71
2022/08/21 03:06:51;;;;;;;3.03;2.43;;;;;;;14.63;100.00;100319.59;4890109;29;20284;-73
2022/08/21 03:09:16;;;;;;;2.70;2.20;;;;;;;14.64;100.00;100317.88;4906132;29;20703;-71
2022/08/21 03:11:42;;;;;;;2.50;2.30;;;;;;;14.66;100.00;100323.03;4892173;29;20195;-71
2022/08/21 03:14:07;;;;;;;3.30;2.50;;;;;;;14.66;100.00;100316.09;4891084;29;20274;-72
2022/08/21 03:16:32;;;;;;;2.80;2.30;;;;;;;14.63;100.00;100327.41;4891474;29;20365;-70
2022/08/21 03:18:58;;;;;;;2.43;2.13;;;;;;;14.62;100.00;100323.09;4892617;29;20908;-74
2022/08/21 03:21:23;;;;;;;2.50;2.30;;;;;;;14.62;100.00;100319.66;4891816;29;20458;-73
2022/08/21 03:23:48;;;;;;;3.30;3.00;;;;;;;14.62;100.00;100319.66;4892385;29;20195;-72
2022/08/21 03:26:14;;;;;;;3.00;2.70;;;;;;;14.60;100.00;100324.03;4889891;29;20234;-75
2022/08/21 03:28:39;;;;;;;2.77;2.50;;;;;;;14.57;100.00;100324.97;4907618;29;20202;-76
2022/08/21 03:31:05;;;;;;;2.67;2.40;;;;;;;14.56;100.00;100322.41;4891284;29;20221;-74
2022/08/21 03:33:31;;;;;;;3.17;2.47;;;;;;;14.54;100.00;100319.84;4890295;29;20678;-75
2022/08/21 03:36:07;;;;;;;2.50;2.30;;;;;;;14.52;100.00;100321.63;4891532;29;20341;-73
2022/08/21 03:38:34;;;;;;;3.07;2.77;;;;;;;14.50;100.00;100315.59;4890072;29;20221;-74
2022/08/21 03:41:00;;;;;;;3.57;2.63;;;;;;;14.51;100.00;100313.88;4891580;29;20278;-72
2022/08/21 03:43:26;;;;;;;3.20;2.90;;;;;;;14.50;100.00;100325.16;4891505;29;20207;-71
2022/08/21 03:45:52;;;;;;;4.00;2.87;;;;;;;14.46;100.00;100322.63;4892043;29;20221;-71
2022/08/21 03:48:17;;;;;;;4.77;3.00;;;;;;;14.43;100.00;100316.66;4890997;29;20661;-74
2022/08/21 03:50:46;;;;;;;3.37;3.07;;;;;;;14.40;100.00;100316.72;4894489;29;20197;-72
2022/08/21 03:53:14;;;;;;;2.90;2.63;;;;;;;14.36;100.00;100315.94;4889179;29;20281;-72
2022/08/21 03:55:39;;;;;;;3.70;2.60;;;;;;;14.31;100.00;100312.59;4902321;29;20313;-76
2022/08/21 03:58:07;;;;;;;3.03;2.70;;;;;;;14.29;100.00;100322.19;4890297;29;20218;-72
2022/08/21 04:00:32;;;;;;;3.47;3.17;;;;;;;14.30;100.00;100329.94;4889585;29;20221;-72
2022/08/21 04:02:58;;;;;;;3.47;2.40;;;;;;;14.26;100.00;100325.72;4892207;29;20722;-73
2022/08/21 04:05:29;;;;;;;3.03;2.73;;;;;;;14.24;100.00;100324.91;4890975;29;20230;-71
2022/08/21 04:08:00;;;;;;;2.83;2.50;;;;;;;14.23;100.00;100328.41;4894765;29;20226;-72
2022/08/21 04:10:28;;;;;;;2.80;2.60;;;;;;;14.20;100.00;100331.06;4892609;29;20634;-71
2022/08/21 04:12:54;;;;;;;3.13;2.80;;;;;;;14.18;100.00;100335.44;4889403;29;20196;-71
2022/08/21 04:15:21;;;;;;;3.20;2.80;;;;;;;14.15;100.00;100338.09;4890452;29;20240;-75
2022/08/21 04:17:46;;;;;;;4.47;2.80;;;;;;;14.11;100.00;100342.53;4891104;29;20198;-72
2022/08/21 04:20:12;;;;;;;3.03;2.70;;;;;;;14.06;100.00;100347.00;4905525;29;20200;-71
2022/08/21 04:22:38;;;;;;;3.37;3.07;;;;;;;14.04;100.00;100348.78;4892153;29;20579;-71
2022/08/21 04:25:04;;;;;;;3.13;2.73;;;;;;;13.99;100.00;100351.47;4889003;29;20230;-73
2022/08/21 04:27:30;;;;;;;3.33;3.03;;;;;;;13.98;100.00;100354.97;4889743;29;20222;-72
2022/08/21 04:29:55;;;;;;;3.40;3.10;;;;;;;13.98;100.00;100349.78;4892160;29;20766;-72
2022/08/21 04:32:24;;;;;;;3.97;2.87;;;;;;;14.00;100.00;100358.38;4892007;29;20188;-76
2022/08/21 04:34:50;;;;;;;3.20;2.83;;;;;;;14.03;100.00;100357.47;4889336;29;20255;-72
2022/08/21 04:37:15;;;;;;;3.53;2.30;;;;;;;14.06;100.00;100361.75;4888151;29;20201;-71
2022/08/21 04:39:42;;;;;;;3.13;2.73;;;;;;;14.05;100.00;100360.91;4891256;29;20227;-72
2022/08/21 04:42:08;;;;;;;3.20;2.83;;;;;;;14.05;100.00;100360.03;4889882;29;20210;-74
2022/08/21 04:44:34;;;;;;;3.43;3.03;;;;;;;14.05;100.00;100365.25;4890654;29;20203;-73
2022/08/21 04:46:59;;;;;;;3.67;3.33;;;;;;;14.09;100.00;100357.31;4912390;29;20218;-74
2022/08/21 04:49:24;;;;;;;2.57;2.37;;;;;;;14.15;100.00;100365.00;4889797;29;20196;-73
2022/08/21 04:51:50;;;;;;;3.00;2.67;;;;;;;14.21;100.00;100371.81;4892192;29;20225;-72
2022/08/21 04:54:21;;;;;;;3.07;2.87;;;;;;;14.27;100.00;100371.69;4902402;29;20197;-71
2022/08/21 04:56:51;;;;;;;2.70;2.50;;;;;;;14.33;100.00;100379.34;4889291;29;20221;-71
2022/08/21 04:59:24;;;;;;;2.90;2.60;;;;;;;14.39;100.00;100375.72;4889861;29;20185;-73
2022/08/21 05:01:50;;;;;;;3.17;2.67;;;;;;;14.47;100.00;100389.44;4890405;29;20197;-76
2022/08/21 05:04:20;;;;;;;3.10;2.80;;;;;;;14.56;100.00;100387.50;4891168;29;20321;-72
2022/08/21 05:06:48;;;;;;;2.93;2.70;;;;;;;14.60;100.00;100395.19;4901453;29;20229;-71
2022/08/21 05:09:16;;;;;;;3.00;2.70;;;;;;;14.67;100.00;100397.66;4888977;29;20193;-74
2022/08/21 05:11:42;;;;;;;4.17;2.63;;;;;;;14.74;100.00;100388.84;4891955;29;20216;-71
2022/08/21 05:14:08;;;;;;;3.93;3.13;;;;;;;14.83;100.00;100391.22;4888985;29;20193;-71
2022/08/21 05:16:34;;;;;;;3.77;2.90;;;;;;;14.92;100.00;100392.75;4892506;29;20664;-71
2022/08/21 05:18:59;;;;;;;3.27;2.97;;;;;;;15.00;100.00;100393.38;4891040;29;20665;-74
2022/08/21 05:21:24;;;;;;;2.97;2.77;;;;;;;15.10;100.00;100396.63;4909610;29;20297;-73
2022/08/21 05:23:50;;;;;;;2.87;2.53;;;;;;;15.21;100.00;100398.94;4892000;29;20216;-74
2022/08/21 05:26:15;;;;;;;3.23;2.93;;;;;;;15.35;100.00;100395.97;4893530;29;20719;-71
2022/08/21 05:28:40;;;;;;;3.37;2.80;;;;;;;15.48;100.00;100396.47;4896417;29;20223;-71
2022/08/21 05:31:06;;;;;;;2.70;2.50;;;;;;;15.94;100.00;100396.97;4894667;29;20871;-73
2022/08/21 05:33:31;;;;;;;3.40;2.67;;;;;;;17.00;100.00;100386.69;4893727;29;20189;-71
2022/08/21 05:35:56;;;;;;;3.23;2.20;;;;;;;18.14;97.36;100384.34;4892803;29;20211;-75
2022/08/21 05:38:28;;;;;;;2.70;2.00;;;;;;;19.12;93.65;100390.88;4906782;29;20580;-71
2022/08/21 05:40:53;;;;;;;2.30;2.10;;;;;;;19.99;90.54;100373.91;4894998;29;20198;-71
2022/08/21 05:43:19;;;;;;;2.60;2.33;;;;;;;20.67;88.06;100371.50;4893926;29;20189;-72
2022/08/21 05:45:45;;;;;;;2.80;2.50;;;;;;;21.26;86.09;100370.34;4894627;29;20213;-74
2022/08/21 05:48:20;;;;;;;2.67;2.13;;;;;;;21.84;83.79;100373.44;4894682;29;20210;-71
2022/08/21 05:50:47;;;;;;;3.13;2.23;;;;;;;22.32;82.06;100370.78;4893443;29;20277;-72
2022/08/21 05:53:13;;;;;;;2.60;2.40;;;;;;;22.88;80.28;100372.88;4890304;29;20310;-74
2022/08/21 05:55:40;;;;;;;2.37;2.00;;;;;;;23.42;78.70;100367.88;4906885;29;20216;-76
2022/08/21 05:58:06;;;;;;;3.03;2.50;;;;;;;23.82;77.24;100366.31;4892199;29;20212;-71
2022/08/21 06:00:32;;;;;;;2.37;2.17;;;;;;;24.23;75.95;100362.84;4890737;29;20185;-72
2022/08/21 06:02:57;;;;;;;2.83;2.37;;;;;;;24.64;74.98;100363.69;4894111;29;20193;-75
2022/08/21 06:05:23;;;;;;;2.63;2.30;;;;;;;24.96;73.49;100371.25;4905087;29;20221;-71
2022/08/21 06:07:48;;;;;;;4.27;2.43;;;;;;;25.33;72.59;100370.53;4892082;29;20304;-72
2022/08/21 06:10:14;;;;;;;2.67;2.27;;;;;;;25.53;71.28;100367.34;4907426;29;20203;-75
2022/08/21 06:12:39;;;;;;;3.07;2.50;;;;;;;25.84;70.40;100370.47;4891943;29;20193;-73
2022/08/21 06:15:05;;;;;;;2.37;2.10;;;;;;;26.25;69.42;100367.56;4897247;29;20213;-73
2022/08/21 06:17:30;;;;;;;2.93;2.03;;;;;;;26.55;68.66;100361.78;4893799;29;20186;-72
2022/08/21 06:19:56;;;;;;;3.13;2.57;;;;;;;26.89;67.93;100367.22;4904433;29;20248;-74
2022/08/21 06:22:22;;;;;;;2.87;2.23;;;;;;;27.24;67.65;100366.28;4891225;29;20253;-71
2022/08/21 06:24:47;;;;;;;2.30;2.10;;;;;;;27.63;66.95;100367.78;4891395;29;20189;-72
2022/08/21 06:27:13;;;;;;;2.77;2.03;;;;;;;27.93;66.48;100364.44;4891535;29;20805;-77
2022/08/21 06:29:38;;;;;;;2.77;2.13;;;;;;;28.21;66.05;100366.69;4894554;29;20935;-73
2022/08/21 06:32:07;;;;;;;2.37;2.03;;;;;;;28.46;65.53;100360.19;4893750;29;20224;-77
2022/08/21 06:34:36;;;;;;;2.60;2.23;;;;;;;28.68;65.03;100361.88;4895899;29;20227;-72
2022/08/21 06:37:01;;;;;;;2.83;2.03;;;;;;;28.92;64.05;100359.94;4895221;29;20212;-73
2022/08/21 06:39:27;;;;;;;3.57;2.00;;;;;;;29.02;63.09;100366.16;4901939;29;20576;-74
2022/08/21 06:41:52;;;;;;;2.80;2.60;;;;;;;29.17;63.05;100362.19;4895664;29;20569;-73
2022/08/21 06:44:18;;;;;;;3.73;2.70;;;;;;;29.35;62.93;100364.25;4893488;29;20193;-72
2022/08/21 06:46:43;;;;;;;3.97;2.43;;;;;;;29.44;62.18;100366.09;4889568;29;20228;-72
2022/08/21 06:49:08;;;;;;;3.63;2.50;;;;;;;29.59;61.82;100358.59;4886031;29;20189;-72
2022/08/21 06:51:34;;;;;;;3.00;2.17;;;;;;;29.68;61.58;100356.94;4889668;29;20185;-75
2022/08/21 06:53:59;;;;;;;2.40;2.13;;;;;;;29.78;60.89;100355.13;4902608;29;20200;-73
2022/08/21 06:56:25;;;;;;;2.97;2.10;;;;;;;29.83;60.82;100356.53;4919721;29;22228;-71
2022/08/21 06:58:50;;;;;;;2.50;2.30;;;;;;;29.87;60.25;100366.78;4899245;29;20190;-71
2022/08/21 07:01:15;;;;;;;2.77;2.40;;;;;;;29.89;60.14;100363.97;4910202;29;20665;-72
2022/08/21 07:03:42;;;;;;;2.90;2.17;;;;;;;29.95;59.99;100366.13;4892888;29;20188;-72
2022/08/21 07:06:09;;;;;;;3.10;2.57;;;;;;;29.91;60.41;100360.22;4895086;29;20809;-73
2022/08/21 07:08:36;;;;;;;2.10;1.90;;;;;;;29.91;60.15;100360.22;4901423;29;20228;-74
2022/08/21 07:11:06;;;;;;;4.53;2.23;;;;;;;29.90;59.75;100363.00;4905465;29;20279;-72
2022/08/21 07:13:31;;;;;;;2.70;2.30;;;;;;;29.80;59.45;100354.97;4900295;29;20682;-72
2022/08/21 07:15:57;;;;;;;4.37;2.57;;;;;;;29.66;59.38;100358.88;4903933;29;20208;-72
2022/08/21 07:18:22;;;;;;;3.00;2.30;;;;;;;29.48;59.85;100362.19;4902732;29;20279;-74
2022/08/21 07:20:48;;;;;;;2.63;2.20;;;;;;;29.34;60.15;100355.41;4922293;29;20188;-71
2022/08/21 07:23:24;;;;;;;4.07;2.40;;;;;;;29.27;60.67;100356.91;4894786;29;20188;-74
2022/08/21 07:25:50;;;;;;;3.20;2.57;;;;;;;29.17;60.50;100354.19;4901470;29;20223;-72
2022/08/21 07:28:16;;;;;;;3.03;2.30;;;;;;;29.04;60.89;100354.41;4902277;29;20216;-75
2022/08/21 07:30:42;;;;;;;2.80;2.20;;;;;;;28.94;61.50;100352.69;4902499;29;20276;-71
2022/08/21 07:33:07;;;;;;;3.00;2.47;;;;;;;28.80;61.70;100357.38;4905568;29;20287;-72
2022/08/21 07:35:33;;;;;;;4.00;2.40;;;;;;;28.64;62.48;100355.13;4898451;29;20288;-71
2022/08/21 07:37:59;;;;;;;4.70;2.50;;;;;;;28.48;62.64;100344.94;4894670;29;20249;-71
2022/08/21 07:40:24;;;;;;;3.60;2.40;;;;;;;28.33;62.95;100347.03;4899864;29;20200;-72
2022/08/21 07:42:51;;;;;;;3.27;2.07;;;;;;;28.14;63.46;100355.72;4904606;29;20199;-74
2022/08/21 07:45:18;;;;;;;3.50;2.30;;;;;;;27.94;63.58;100344.84;4896744;29;20223;-71
2022/08/21 07:47:44;;;;;;;2.30;2.10;;;;;;;27.81;64.38;100350.34;4910828;29;20590;-74
2022/08/21 07:50:11;;;;;;;3.23;2.47;;;;;;;27.68;64.58;100357.63;4899444;29;20220;-72
2022/08/21 07:52:36;;;;;;;3.47;2.20;;;;;;;27.46;64.51;100355.81;4902578;29;20241;-72
2022/08/21 07:55:02;;;;;;;2.63;2.20;;;;;;;27.19;64.73;100349.88;4903966;29;20271;-72
2022/08/21 07:57:28;;;;;;;2.83;2.43;;;;;;;27.00;65.11;100347.78;4896701;29;20200;-71
2022/08/21 07:59:54;;;;;;;2.67;2.30;;;;;;;26.83;65.40;100351.75;4887778;29;20650;-72
2022/08/21 08:02:28;;;;;;;3.33;2.30;;;;;;;26.64;66.16;100349.63;4889701;29;20717;-74
2022/08/21 08:04:53;;;;;;;2.80;2.57;;;;;;;26.51;66.32;100348.88;4906898;29;20248;-72
2022/08/21 08:07:19;;;;;;;2.23;2.00;;;;;;;26.36;66.78;100346.41;4891090;29;20686;-71
2022/08/21 08:09:44;;;;;;;2.20;2.00;;;;;;;26.25;67.22;100346.34;4892638;29;20197;-74
2022/08/21 08:12:10;;;;;;;3.10;2.50;;;;;;;26.19;67.38;100344.16;4891650;29;20673;-74
2022/08/21 08:14:35;;;;;;;2.73;2.27;;;;;;;26.16;67.79;100346.09;4895359;29;20284;-75
2022/08/21 08:17:02;;;;;;;3.53;2.30;;;;;;;26.11;67.71;100347.38;4890978;29;20231;-74
2022/08/21 08:19:27;;;;;;;2.50;2.30;;;;;;;26.03;68.11;100346.09;4893795;29;20204;-76
2022/08/21 08:21:53;;;;;;;4.20;2.13;;;;;;;25.95;68.72;100344.97;4893938;29;20204;-73
2022/08/21 08:24:18;;;;;;;2.50;1.93;;;;;;;25.83;69.10;100333.47;4899788;29;20206;-71
2022/08/21 08:26:44;;;;;;;2.30;2.10;;;;;;;25.73;69.42;100333.28;4900081;29;20355;-73
2022/08/21 08:29:09;;;;;;;2.60;2.00;;;;;;;25.57;69.22;100333.53;4892653;29;20193;-74
2022/08/21 08:31:35;;;;;;;2.50;2.20;;;;;;;25.46;69.42;100331.66;4889743;29;22011;-71
2022/08/21 08:34:00;;;;;;;2.50;2.30;;;;;;;25.31;68.83;100327.41;4890660;29;20685;-72
2022/08/21 08:36:33;;;;;;;3.23;2.30;;;;;;;25.24;69.23;100327.84;4888179;29;20259;-71
2022/08/21 08:39:00;;;;;;;2.37;2.13;;;;;;;25.24;69.29;100324.38;4903559;29;20207;-73
2022/08/21 08:41:25;;;;;;;2.40;2.07;;;;;;;25.27;69.57;100317.03;4888350;29;20240;-72
2022/08/21 08:43:58;;;;;;;3.97;2.60;;;;;;;25.24;69.35;100314.59;4885327;29;21967;-72
2022/08/21 08:46:43;;;;;;;3.07;2.17;;;;;;;25.22;69.34;100323.63;4887548;29;22629;-74
2022/08/21 08:49:24;;;;;;;2.60;2.17;;;;;;;25.23;69.34;100320.84;4890534;29;20197;-74
2022/08/21 08:52:14;;;;;;;2.70;1.90;;;;;;;25.27;69.53;100314.38;4889283;29;20211;-72
2022/08/21 08:54:48;;;;;;;4.80;2.70;;;;;;;25.33;68.67;100314.91;4893012;29;20678;-72
2022/08/21 08:57:19;;;;;;;3.13;2.30;;;;;;;25.26;68.43;100310.03;4889884;29;20769;-76
2022/08/21 08:59:50;;;;;;;3.47;2.30;;;;;;;25.21;68.01;100306.88;4894207;29;20201;-72
2022/08/21 09:02:16;;;;;;;3.00;2.67;;;;;;;25.20;68.09;100305.16;4890637;29;20200;-73
2022/08/21 09:04:45;;;;;;;3.67;2.67;;;;;;;25.19;68.00;100303.47;4893167;29;20205;-73
2022/08/21 09:07:36;;;;;;;3.40;2.50;;;;;;;25.21;67.87;100298.09;4890493;29;20225;-74
2022/08/21 09:10:28;;;;;;;2.50;2.30;;;;;;;25.28;68.13;100299.31;4891022;29;20195;-71
2022/08/21 09:13:06;;;;;;;2.93;2.50;;;;;;;25.38;68.09;100287.16;4893989;29;20299;-74
2022/08/21 09:15:40;;;;;;;2.77;2.30;;;;;;;25.43;67.35;100294.78;4891478;29;20227;-70
2022/08/21 09:18:13;;;;;;;3.33;2.50;;;;;;;25.50;67.45;100274.00;4892877;29;20223;-72
2022/08/21 09:20:44;;;;;;;3.27;2.70;;;;;;;25.61;67.48;100268.75;4892738;29;20267;-72
2022/08/21 09:23:25;;;;;;;3.60;2.43;;;;;;;25.61;67.24;100275.88;4890321;29;20783;-71
2022/08/21 09:25:50;;;;;;;3.23;2.33;;;;;;;25.57;67.17;100264.63;4891412;29;20220;-73
2022/08/21 09:28:16;;;;;;;3.17;2.27;;;;;;;25.59;66.65;100265.38;4891752;29;20189;-73
2022/08/21 09:30:41;;;;;;;4.20;3.03;;;;;;;25.54;66.40;100264.88;4891888;29;20189;-73
2022/08/21 09:33:09;;;;;;;4.10;2.67;;;;;;;25.48;66.41;100263.53;4893260;29;20347;-75
2022/08/21 09:35:36;;;;;;;4.57;2.60;;;;;;;25.47;66.13;100258.31;4891832;29;20225;-76
2022/08/21 09:38:07;;;;;;;3.80;2.40;;;;;;;25.55;66.54;100254.16;4890924;29;20550;-73
2022/08/21 09:40:35;;;;;;;3.20;2.60;;;;;;;25.63;66.35;100250.94;4892152;29;20208;-72
2022/08/21 09:43:05;;;;;;;2.93;2.40;;;;;;;25.72;66.21;100252.09;4890202;29;20254;-74
2022/08/21 09:45:31;;;;;;;3.57;2.60;;;;;;;25.79;66.32;100248.00;4891730;29;20229;-73
2022/08/21 09:48:08;;;;;;;3.50;2.53;;;;;;;25.85;66.09;100247.56;4892452;29;21101;-72
2022/08/21 09:50:33;;;;;;;2.40;2.20;;;;;;;25.91;66.20;100246.25;4894538;29;20291;-72
2022/08/21 09:53:00;;;;;;;4.00;2.50;;;;;;;25.99;66.16;100248.34;4890622;29;20648;-73
2022/08/21 09:58:19;;;;;;;3.33;2.70;;;;;;;25.85;65.05;100236.97;4891989;29;20728;-73
2022/08/21 10:00:52;;;;;;;5.87;3.10;;;;;;;25.85;65.29;100244.09;4891416;29;20658;-71
2022/08/21 10:03:21;;;;;;;3.40;2.97;;;;;;;25.98;64.95;100251.94;4888380;29;20201;-71
2022/08/21 10:05:52;;;;;;;5.70;2.90;;;;;;;25.94;65.18;100246.03;4888498;29;20312;-72
2022/08/21 10:08:20;;;;;;;4.87;2.93;;;;;;;25.93;65.12;100243.50;4890838;29;20208;-72
2022/08/21 10:10:51;;;;;;;5.27;3.03;;;;;;;25.81;64.33;100238.13;4890679;29;20189;-74
2022/08/21 10:13:28;;;;;;;5.73;3.20;;;;;;;25.99;64.25;100233.28;4897373;29;20663;-72
2022/08/21 10:15:56;;;;;;;5.07;2.73;;;;;;;26.08;64.48;100239.72;4901148;29;20212;-74
2022/08/21 10:18:35;;;;;;;4.57;3.00;;;;;;;26.13;64.23;100232.25;4911539;29;20192;-73
2022/08/21 10:21:06;;;;;;;3.23;2.83;;;;;;;26.25;64.48;100232.28;4893846;29;20757;-72
2022/08/21 10:23:42;;;;;;;3.80;3.03;;;;;;;26.27;63.88;100235.69;4915558;29;20192;-73
2022/08/21 10:26:14;;;;;;;3.93;2.70;;;;;;;26.43;63.82;100230.88;4895948;29;20217;-72
2022/08/21 10:28:47;;;;;;;2.73;2.50;;;;;;;26.54;63.38;100234.53;4895040;29;20203;-72
2022/08/21 10:31:15;;;;;;;5.20;2.80;;;;;;;26.61;62.51;100227.78;4902047;29;20689;-73
2022/08/21 10:34:07;;;;;;;4.60;2.90;;;;;;;26.69;60.93;100228.03;4898869;29;20205;-70
2022/08/21 10:36:45;;;;;;;3.87;2.90;;;;;;;26.62;61.80;100217.03;4893763;29;20735;-71
2022/08/21 10:39:24;;;;;;;3.43;2.30;;;;;;;26.71;62.51;100219.94;4894451;29;20197;-71
2022/08/21 10:41:59;;;;;;;4.70;2.80;;;;;;;26.82;61.10;100216.50;4910003;29;20196;-72
2022/08/21 10:44:42;;;;;;;3.73;2.70;;;;;;;26.80;60.63;100221.91;4892730;29;20206;-71
2022/08/21 10:47:23;;;;;;;4.23;2.73;;;;;;;26.66;60.53;100209.69;4892059;29;20220;-73
2022/08/21 10:50:03;;;;;;;4.03;2.63;;;;;;;26.68;60.65;100213.09;4892684;29;20292;-71
2022/08/21 10:52:28;;;;;;;3.00;2.03;;;;;;;26.85;61.17;100211.78;4895130;29;20196;-75
2022/08/21 10:55:07;;;;;;;3.47;2.70;;;;;;;26.91;60.53;100205.13;4910713;29;20206;-74
2022/08/21 10:57:54;;;;;;;2.83;2.50;;;;;;;27.03;60.97;100205.97;4905005;29;20359;-71
2022/08/21 11:00:23;;;;;;;2.40;2.20;;;;;;;27.15;60.09;100206.81;4889816;29;20255;-72
2022/08/21 11:03:03;;;;;;;2.10;1.90;;;;;;;27.14;59.16;100203.28;4890964;29;20222;-71
2022/08/21 11:05:38;;;;;;;2.70;1.97;;;;;;;27.12;59.21;100209.72;4905185;29;20327;-74
2022/08/21 11:08:15;;;;;;;2.30;2.10;;;;;;;27.11;58.89;100205.34;4887375;29;20286;-72
2022/08/21 11:10:43;;;;;;;2.70;2.30;;;;;;;27.04;59.27;100200.53;4889471;29;20200;-71
2022/08/21 11:13:17;;;;;;;2.87;2.20;;;;;;;27.15;59.82;100190.88;4890896;29;20212;-75
2022/08/21 11:16:13;;;;;;;2.77;1.97;;;;;;;27.26;60.49;100182.00;4905263;29;20232;-71
2022/08/21 11:19:10;;;;;;;3.00;2.43;;;;;;;27.50;61.44;100187.16;4888841;29;20193;-73
2022/08/21 11:22:09;;;;;;;2.77;2.43;;;;;;;27.62;61.09;100182.66;4906713;29;20205;-70
2022/08/21 11:24:54;;;;;;;3.10;2.20;;;;;;;27.66;60.61;100178.78;4906647;29;20666;-71
2022/08/21 11:27:31;;;;;;;1.83;1.73;;;;;;;27.71;60.70;100178.41;4892695;29;20213;-72
2022/08/21 11:30:00;;;;;;;2.03;1.80;;;;;;;27.74;61.04;100173.66;4890978;29;20200;-71